PWSweather.com
Personal Weather Stations
Station Observations
MENWDWX1
Menstrie, ScotlandGB

MenstrieScotlandGB

Lat: 56.148322, Lon: -3.85483

Elevation: 62

Station Type: Davis Vantage Pro 2

High Low Average
Temperature 59.6°F15.3°C 44.0°F6.7°C 52.3°F11.3°C
Dew Point 49.7°F9.8°C 37.6°F3.1°C 45.0°F7.2°C
Winds 11.5 mph 18.5 kmh Calm Calm 5.0 mph WSW8.0 kmh WSW
Wind Gusts 19.6 mph31.5 kmh -- 8.0 mph12.9 kmh
Humidity 79% 65% 76%
Pressure 29.99 in1015.6 mb 29.79 in1008.8 mb -
Precipitation 0.03 in0.8 mm - -
Hour Temp Dew Point Humidity Winds Wind Gusts Pressure Precip Precip Rate Daily Precip Total
12:00 AM 52.1°F11.2°C 45.1°F7.3°C 77% Calm Calm 2.3 mph3.7 kmh 29.89 in1012.2 mb - 0.00 in0.0 mm 0.00 in0.0 mm
12:05 AM 52.1°F11.2°C 45.1°F7.3°C 77% 1.2 mph WSW1.9 kmh WSW 2.3 mph3.7 kmh 29.89 in1012.2 mb - 0.00 in0.0 mm 0.00 in0.0 mm
12:10 AM 52.1°F11.2°C 45.1°F7.3°C 77% 1.2 mph WSW1.9 kmh WSW 3.5 mph5.6 kmh 29.89 in1012.2 mb - 0.00 in0.0 mm 0.00 in0.0 mm
12:15 AM 52.2°F11.2°C 45.2°F7.3°C 77% 2.3 mph WSW3.7 kmh WSW 4.6 mph7.4 kmh 29.88 in1011.9 mb - 0.00 in0.0 mm 0.00 in0.0 mm
12:20 AM 52.3°F11.3°C 45.3°F7.4°C 77% 2.3 mph WSW3.7 kmh WSW 3.5 mph5.6 kmh 29.88 in1011.9 mb - 0.00 in0.0 mm 0.00 in0.0 mm
12:25 AM 52.4°F11.3°C 45.4°F7.4°C 77% 1.2 mph SW1.9 kmh SW 3.5 mph5.6 kmh 29.88 in1011.9 mb - 0.00 in0.0 mm 0.00 in0.0 mm
12:30 AM 52.4°F11.3°C 45.4°F7.4°C 77% 1.2 mph SW1.9 kmh SW -- 29.88 in1011.9 mb - 0.00 in0.0 mm 0.00 in0.0 mm
12:35 AM 52.4°F11.3°C 45.4°F7.4°C 77% 3.5 mph SW5.6 kmh SW 3.5 mph5.6 kmh 29.88 in1011.9 mb - 0.00 in0.0 mm 0.00 in0.0 mm
12:40 AM 52.4°F11.3°C 45.4°F7.4°C 77% 2.3 mph SW3.7 kmh SW 3.5 mph5.6 kmh 29.88 in1011.9 mb - 0.01 in0.3 mm 0.01 in0.3 mm
12:45 AM 52.4°F11.3°C 45.4°F7.4°C 77% 1.2 mph SW1.9 kmh SW 2.3 mph3.7 kmh 29.88 in1011.9 mb - 0.00 in0.0 mm 0.01 in0.3 mm
12:50 AM 52.4°F11.3°C 45.4°F7.4°C 77% 3.5 mph WSW5.6 kmh WSW 6.9 mph11.1 kmh 29.88 in1011.9 mb - 0.00 in0.0 mm 0.01 in0.3 mm
12:55 AM 52.4°F11.3°C 45.4°F7.4°C 77% 3.5 mph WSW5.6 kmh WSW 6.9 mph11.1 kmh 29.87 in1011.5 mb - 0.00 in0.0 mm 0.01 in0.3 mm
01:00 AM 52.4°F11.3°C 45.4°F7.4°C 77% 4.6 mph WSW7.4 kmh WSW 4.6 mph7.4 kmh 29.87 in1011.5 mb - 0.00 in0.0 mm 0.01 in0.3 mm
01:05 AM 52.4°F11.3°C 45.4°F7.4°C 77% 3.5 mph WSW5.6 kmh WSW 8.1 mph13.0 kmh 29.87 in1011.5 mb - 0.00 in0.0 mm 0.01 in0.3 mm
01:10 AM 52.5°F11.4°C 45.5°F7.5°C 77% 2.3 mph WSW3.7 kmh WSW 3.5 mph5.6 kmh 29.86 in1011.2 mb - 0.00 in0.0 mm 0.01 in0.3 mm
01:15 AM 52.6°F11.4°C 45.6°F7.6°C 77% 3.5 mph WSW5.6 kmh WSW 6.9 mph11.1 kmh 29.86 in1011.2 mb - 0.00 in0.0 mm 0.01 in0.3 mm
01:20 AM 52.6°F11.4°C 45.6°F7.6°C 77% 3.5 mph WSW5.6 kmh WSW 6.9 mph11.1 kmh 29.86 in1011.2 mb - 0.00 in0.0 mm 0.01 in0.3 mm
01:25 AM 52.6°F11.4°C 45.6°F7.6°C 77% 4.6 mph WSW7.4 kmh WSW 9.2 mph14.8 kmh 29.86 in1011.2 mb - 0.00 in0.0 mm 0.01 in0.3 mm
01:30 AM 52.5°F11.4°C 45.5°F7.5°C 77% 4.6 mph W7.4 kmh W 10.4 mph16.7 kmh 29.86 in1011.2 mb - 0.00 in0.0 mm 0.01 in0.3 mm
01:35 AM 52.6°F11.4°C 45.6°F7.6°C 77% 2.3 mph W3.7 kmh W 3.5 mph5.6 kmh 29.86 in1011.2 mb - 0.00 in0.0 mm 0.01 in0.3 mm
01:40 AM 52.6°F11.4°C 45.6°F7.6°C 77% 3.5 mph W5.6 kmh W 3.5 mph5.6 kmh 29.86 in1011.2 mb - 0.00 in0.0 mm 0.01 in0.3 mm
01:45 AM 52.6°F11.4°C 45.6°F7.6°C 77% 2.3 mph SW3.7 kmh SW 4.6 mph7.4 kmh 29.86 in1011.2 mb - 0.00 in0.0 mm 0.01 in0.3 mm
01:50 AM 52.6°F11.4°C 45.6°F7.6°C 77% 5.8 mph SW9.3 kmh SW 8.1 mph13.0 kmh 29.85 in1010.8 mb - 0.00 in0.0 mm 0.01 in0.3 mm
01:55 AM 52.7°F11.5°C 45.7°F7.6°C 77% 3.5 mph WSW5.6 kmh WSW 5.8 mph9.3 kmh 29.85 in1010.8 mb - 0.00 in0.0 mm 0.01 in0.3 mm
02:00 AM 52.8°F11.6°C 45.8°F7.7°C 77% 3.5 mph WSW5.6 kmh WSW 3.5 mph5.6 kmh 29.85 in1010.8 mb - 0.00 in0.0 mm 0.01 in0.3 mm
02:05 AM 52.9°F11.6°C 45.9°F7.7°C 77% 4.6 mph WSW7.4 kmh WSW 8.1 mph13.0 kmh 29.85 in1010.8 mb - 0.00 in0.0 mm 0.01 in0.3 mm
02:10 AM 53.0°F11.7°C 46.0°F7.8°C 77% 4.6 mph SW7.4 kmh SW 6.9 mph11.1 kmh 29.85 in1010.8 mb - 0.00 in0.0 mm 0.01 in0.3 mm
02:15 AM 53.1°F11.7°C 46.1°F7.8°C 77% 4.6 mph WSW7.4 kmh WSW 8.1 mph13.0 kmh 29.84 in1010.5 mb - 0.00 in0.0 mm 0.01 in0.3 mm
02:20 AM 53.1°F11.7°C 46.1°F7.8°C 77% 4.6 mph WSW7.4 kmh WSW 5.8 mph9.3 kmh 29.85 in1010.8 mb - 0.00 in0.0 mm 0.01 in0.3 mm
02:25 AM 53.1°F11.7°C 46.1°F7.8°C 77% 2.3 mph WSW3.7 kmh WSW 3.5 mph5.6 kmh 29.84 in1010.5 mb - 0.00 in0.0 mm 0.01 in0.3 mm
02:30 AM 53.1°F11.7°C 46.1°F7.8°C 77% 2.3 mph WSW3.7 kmh WSW 3.5 mph5.6 kmh 29.84 in1010.5 mb - 0.00 in0.0 mm 0.01 in0.3 mm
02:35 AM 53.0°F11.7°C 46.0°F7.8°C 77% 2.3 mph SW3.7 kmh SW 3.5 mph5.6 kmh 29.84 in1010.5 mb - 0.00 in0.0 mm 0.01 in0.3 mm
02:40 AM 52.9°F11.6°C 45.9°F7.7°C 77% 2.3 mph SW3.7 kmh SW 6.9 mph11.1 kmh 29.84 in1010.5 mb - 0.00 in0.0 mm 0.01 in0.3 mm
02:45 AM 52.9°F11.6°C 45.9°F7.7°C 77% 2.3 mph SW3.7 kmh SW 3.5 mph5.6 kmh 29.84 in1010.5 mb - 0.00 in0.0 mm 0.01 in0.3 mm
02:50 AM 52.9°F11.6°C 45.9°F7.7°C 77% 1.2 mph W1.9 kmh W 3.5 mph5.6 kmh 29.84 in1010.5 mb - 0.00 in0.0 mm 0.01 in0.3 mm
02:55 AM 52.8°F11.6°C 45.8°F7.7°C 77% 3.5 mph SW5.6 kmh SW 4.6 mph7.4 kmh 29.83 in1010.2 mb - 0.00 in0.0 mm 0.01 in0.3 mm
03:00 AM 52.8°F11.6°C 45.8°F7.7°C 77% 3.5 mph WSW5.6 kmh WSW 10.4 mph16.7 kmh 29.83 in1010.2 mb - 0.00 in0.0 mm 0.01 in0.3 mm
03:05 AM 52.8°F11.6°C 45.8°F7.7°C 77% 3.5 mph SW5.6 kmh SW 3.5 mph5.6 kmh 29.83 in1010.2 mb - 0.00 in0.0 mm 0.01 in0.3 mm
03:10 AM 52.8°F11.6°C 45.8°F7.7°C 77% 4.6 mph WSW7.4 kmh WSW 11.5 mph18.5 kmh 29.83 in1010.2 mb - 0.00 in0.0 mm 0.01 in0.3 mm
03:15 AM 52.9°F11.6°C 45.9°F7.7°C 77% 3.5 mph W5.6 kmh W 5.8 mph9.3 kmh 29.82 in1009.8 mb - 0.00 in0.0 mm 0.01 in0.3 mm
03:20 AM 52.9°F11.6°C 45.9°F7.7°C 77% 5.8 mph SW9.3 kmh SW 10.4 mph16.7 kmh 29.82 in1009.8 mb - 0.00 in0.0 mm 0.01 in0.3 mm
03:25 AM 53.0°F11.7°C 46.0°F7.8°C 77% 5.8 mph WSW9.3 kmh WSW 10.4 mph16.7 kmh 29.82 in1009.8 mb - 0.00 in0.0 mm 0.01 in0.3 mm
03:30 AM 53.0°F11.7°C 46.0°F7.8°C 77% 5.8 mph WSW9.3 kmh WSW 9.2 mph14.8 kmh 29.82 in1009.8 mb - 0.00 in0.0 mm 0.01 in0.3 mm
03:35 AM 53.1°F11.7°C 46.1°F7.8°C 77% 6.9 mph WSW11.1 kmh WSW 11.5 mph18.5 kmh 29.82 in1009.8 mb - 0.00 in0.0 mm 0.01 in0.3 mm
03:40 AM 53.1°F11.7°C 46.1°F7.8°C 77% 6.9 mph SW11.1 kmh SW 12.7 mph20.4 kmh 29.82 in1009.8 mb - 0.00 in0.0 mm 0.01 in0.3 mm
03:45 AM 53.2°F11.8°C 46.2°F7.9°C 77% 8.1 mph WSW13.0 kmh WSW 11.5 mph18.5 kmh 29.81 in1009.5 mb - 0.00 in0.0 mm 0.01 in0.3 mm
03:50 AM 53.3°F11.8°C 46.3°F7.9°C 77% 9.2 mph WSW14.8 kmh WSW 15.0 mph24.1 kmh 29.81 in1009.5 mb - 0.00 in0.0 mm 0.01 in0.3 mm
03:55 AM 53.4°F11.9°C 46.4°F8.0°C 77% 8.1 mph SW13.0 kmh SW 13.8 mph22.2 kmh 29.81 in1009.5 mb - 0.00 in0.0 mm 0.01 in0.3 mm
04:00 AM 53.5°F11.9°C 46.5°F8.1°C 77% 8.1 mph WSW13.0 kmh WSW 13.8 mph22.2 kmh 29.81 in1009.5 mb - 0.00 in0.0 mm 0.01 in0.3 mm
04:05 AM 53.6°F12.0°C 46.6°F8.1°C 77% 9.2 mph WSW14.8 kmh WSW 13.8 mph22.2 kmh 29.81 in1009.5 mb - 0.00 in0.0 mm 0.01 in0.3 mm
04:10 AM 53.6°F12.0°C 46.6°F8.1°C 77% 10.4 mph SW16.7 kmh SW 13.8 mph22.2 kmh 29.80 in1009.1 mb - 0.00 in0.0 mm 0.01 in0.3 mm
04:15 AM 53.7°F12.1°C 46.7°F8.2°C 77% 8.1 mph WSW13.0 kmh WSW 11.5 mph18.5 kmh 29.80 in1009.1 mb - 0.00 in0.0 mm 0.01 in0.3 mm
04:20 AM 53.7°F12.1°C 46.7°F8.2°C 77% 6.9 mph WSW11.1 kmh WSW 12.7 mph20.4 kmh 29.80 in1009.1 mb - 0.00 in0.0 mm 0.01 in0.3 mm
04:25 AM 53.7°F12.1°C 46.7°F8.2°C 77% 8.1 mph WSW13.0 kmh WSW 11.5 mph18.5 kmh 29.80 in1009.1 mb - 0.00 in0.0 mm 0.01 in0.3 mm
04:30 AM 53.7°F12.1°C 46.7°F8.2°C 77% 5.8 mph SW9.3 kmh SW 9.2 mph14.8 kmh 29.80 in1009.1 mb - 0.00 in0.0 mm 0.01 in0.3 mm
04:35 AM 53.7°F12.1°C 46.7°F8.2°C 77% 5.8 mph SW9.3 kmh SW 9.2 mph14.8 kmh 29.80 in1009.1 mb - 0.00 in0.0 mm 0.01 in0.3 mm
04:40 AM 53.7°F12.1°C 46.7°F8.2°C 77% 8.1 mph SW13.0 kmh SW 12.7 mph20.4 kmh 29.80 in1009.1 mb - 0.00 in0.0 mm 0.01 in0.3 mm
04:45 AM 53.7°F12.1°C 46.7°F8.2°C 77% 5.8 mph SW9.3 kmh SW 10.4 mph16.7 kmh 29.79 in1008.8 mb - 0.00 in0.0 mm 0.01 in0.3 mm
04:50 AM 53.7°F12.1°C 46.7°F8.2°C 77% 6.9 mph WSW11.1 kmh WSW 11.5 mph18.5 kmh 29.80 in1009.1 mb - 0.00 in0.0 mm 0.01 in0.3 mm
04:55 AM 53.6°F12.0°C 46.6°F8.1°C 77% 6.9 mph SW11.1 kmh SW 12.7 mph20.4 kmh 29.79 in1008.8 mb - 0.00 in0.0 mm 0.01 in0.3 mm
05:00 AM 53.6°F12.0°C 46.6°F8.1°C 77% 6.9 mph SW11.1 kmh SW 12.7 mph20.4 kmh 29.79 in1008.8 mb - 0.00 in0.0 mm 0.01 in0.3 mm
05:05 AM 53.7°F12.1°C 46.7°F8.2°C 77% 6.9 mph SW11.1 kmh SW 11.5 mph18.5 kmh 29.79 in1008.8 mb - 0.00 in0.0 mm 0.01 in0.3 mm
05:10 AM 53.6°F12.0°C 46.6°F8.1°C 77% 5.8 mph WSW9.3 kmh WSW 8.1 mph13.0 kmh 29.79 in1008.8 mb - 0.00 in0.0 mm 0.01 in0.3 mm
05:15 AM 53.5°F11.9°C 46.5°F8.1°C 77% 5.8 mph SW9.3 kmh SW 11.5 mph18.5 kmh 29.79 in1008.8 mb - 0.00 in0.0 mm 0.01 in0.3 mm
05:20 AM 53.3°F11.8°C 46.3°F7.9°C 77% 5.8 mph SW9.3 kmh SW 11.5 mph18.5 kmh 29.79 in1008.8 mb - 0.00 in0.0 mm 0.01 in0.3 mm
05:25 AM 53.2°F11.8°C 46.2°F7.9°C 77% 5.8 mph WSW9.3 kmh WSW 9.2 mph14.8 kmh 29.79 in1008.8 mb - 0.00 in0.0 mm 0.01 in0.3 mm
05:30 AM 53.2°F11.8°C 46.2°F7.9°C 77% 6.9 mph SW11.1 kmh SW 13.8 mph22.2 kmh 29.79 in1008.8 mb - 0.00 in0.0 mm 0.01 in0.3 mm
05:35 AM 53.2°F11.8°C 46.2°F7.9°C 77% 5.8 mph WSW9.3 kmh WSW 8.1 mph13.0 kmh 29.79 in1008.8 mb - 0.00 in0.0 mm 0.01 in0.3 mm
05:40 AM 53.1°F11.7°C 46.1°F7.8°C 77% 4.6 mph WSW7.4 kmh WSW 9.2 mph14.8 kmh 29.79 in1008.8 mb - 0.00 in0.0 mm 0.01 in0.3 mm
05:45 AM 53.0°F11.7°C 46.0°F7.8°C 77% 4.6 mph W7.4 kmh W 9.2 mph14.8 kmh 29.79 in1008.8 mb - 0.00 in0.0 mm 0.01 in0.3 mm
05:50 AM 52.9°F11.6°C 45.9°F7.7°C 77% 5.8 mph WSW9.3 kmh WSW 10.4 mph16.7 kmh 29.79 in1008.8 mb - 0.00 in0.0 mm 0.01 in0.3 mm
05:55 AM 52.9°F11.6°C 45.9°F7.7°C 77% 6.9 mph WSW11.1 kmh WSW 11.5 mph18.5 kmh 29.79 in1008.8 mb - 0.00 in0.0 mm 0.01 in0.3 mm
06:00 AM 52.9°F11.6°C 45.9°F7.7°C 77% 4.6 mph WSW7.4 kmh WSW 11.5 mph18.5 kmh 29.79 in1008.8 mb - 0.00 in0.0 mm 0.01 in0.3 mm
06:05 AM 52.9°F11.6°C 45.9°F7.7°C 77% 2.3 mph W3.7 kmh W 3.5 mph5.6 kmh 29.79 in1008.8 mb - 0.00 in0.0 mm 0.01 in0.3 mm
06:10 AM 52.9°F11.6°C 45.9°F7.7°C 77% 8.1 mph WSW13.0 kmh WSW 15.0 mph24.1 kmh 29.79 in1008.8 mb - 0.00 in0.0 mm 0.01 in0.3 mm
06:15 AM 52.9°F11.6°C 45.9°F7.7°C 77% 6.9 mph WSW11.1 kmh WSW 13.8 mph22.2 kmh 29.79 in1008.8 mb - 0.00 in0.0 mm 0.01 in0.3 mm
06:20 AM 52.8°F11.6°C 45.8°F7.7°C 77% 8.1 mph WSW13.0 kmh WSW 11.5 mph18.5 kmh 29.79 in1008.8 mb - 0.00 in0.0 mm 0.01 in0.3 mm
06:25 AM 52.6°F11.4°C 45.6°F7.6°C 77% 6.9 mph WSW11.1 kmh WSW 10.4 mph16.7 kmh 29.79 in1008.8 mb - 0.00 in0.0 mm 0.01 in0.3 mm
06:30 AM 52.5°F11.4°C 45.5°F7.5°C 77% 4.6 mph WSW7.4 kmh WSW 10.4 mph16.7 kmh 29.79 in1008.8 mb - 0.00 in0.0 mm 0.01 in0.3 mm
06:35 AM 52.4°F11.3°C 45.4°F7.4°C 77% 5.8 mph WSW9.3 kmh WSW 11.5 mph18.5 kmh 29.79 in1008.8 mb - 0.00 in0.0 mm 0.01 in0.3 mm
06:40 AM 52.4°F11.3°C 45.4°F7.4°C 77% 4.6 mph WSW7.4 kmh WSW 11.5 mph18.5 kmh 29.79 in1008.8 mb - 0.00 in0.0 mm 0.01 in0.3 mm
06:45 AM 52.4°F11.3°C 45.4°F7.4°C 77% 4.6 mph WSW7.4 kmh WSW 8.1 mph13.0 kmh 29.79 in1008.8 mb - 0.00 in0.0 mm 0.01 in0.3 mm
06:50 AM 52.5°F11.4°C 45.5°F7.5°C 77% 6.9 mph WSW11.1 kmh WSW 10.4 mph16.7 kmh 29.79 in1008.8 mb - 0.00 in0.0 mm 0.01 in0.3 mm
06:55 AM 52.6°F11.4°C 45.6°F7.6°C 77% 5.8 mph WSW9.3 kmh WSW 10.4 mph16.7 kmh 29.79 in1008.8 mb - 0.00 in0.0 mm 0.01 in0.3 mm
07:00 AM 52.7°F11.5°C 45.7°F7.6°C 77% 8.1 mph WSW13.0 kmh WSW 11.5 mph18.5 kmh 29.79 in1008.8 mb - 0.00 in0.0 mm 0.01 in0.3 mm
07:05 AM 52.8°F11.6°C 45.8°F7.7°C 77% 5.8 mph WSW9.3 kmh WSW 8.1 mph13.0 kmh 29.79 in1008.8 mb - 0.00 in0.0 mm 0.01 in0.3 mm
07:10 AM 52.9°F11.6°C 45.9°F7.7°C 77% 3.5 mph WSW5.6 kmh WSW 5.8 mph9.3 kmh 29.79 in1008.8 mb - 0.00 in0.0 mm 0.01 in0.3 mm
07:15 AM 53.0°F11.7°C 45.9°F7.7°C 77% 9.2 mph WSW14.8 kmh WSW 15.0 mph24.1 kmh 29.79 in1008.8 mb - 0.00 in0.0 mm 0.01 in0.3 mm
07:20 AM 53.2°F11.8°C 46.1°F7.8°C 77% 9.2 mph WSW14.8 kmh WSW 12.7 mph20.4 kmh 29.79 in1008.8 mb - 0.00 in0.0 mm 0.01 in0.3 mm
07:25 AM 53.4°F11.9°C 46.4°F8.0°C 77% 6.9 mph WSW11.1 kmh WSW 11.5 mph18.5 kmh 29.79 in1008.8 mb - 0.00 in0.0 mm 0.01 in0.3 mm
07:30 AM 53.6°F12.0°C 46.5°F8.1°C 77% 5.8 mph W9.3 kmh W 10.4 mph16.7 kmh 29.80 in1009.1 mb - 0.00 in0.0 mm 0.01 in0.3 mm
07:35 AM 53.7°F12.1°C 46.7°F8.2°C 77% 5.8 mph WSW9.3 kmh WSW 9.2 mph14.8 kmh 29.80 in1009.1 mb - 0.00 in0.0 mm 0.01 in0.3 mm
07:40 AM 53.8°F12.1°C 46.8°F8.2°C 77% 2.3 mph WSW3.7 kmh WSW 4.6 mph7.4 kmh 29.80 in1009.1 mb - 0.00 in0.0 mm 0.01 in0.3 mm
07:45 AM 53.9°F12.2°C 46.9°F8.3°C 77% 2.3 mph WSW3.7 kmh WSW 3.5 mph5.6 kmh 29.80 in1009.1 mb - 0.00 in0.0 mm 0.01 in0.3 mm
07:50 AM 54.0°F12.2°C 47.0°F8.3°C 77% 3.5 mph WSW5.6 kmh WSW 4.6 mph7.4 kmh 29.80 in1009.1 mb - 0.00 in0.0 mm 0.01 in0.3 mm
07:55 AM 54.1°F12.3°C 47.1°F8.4°C 77% 4.6 mph WSW7.4 kmh WSW 6.9 mph11.1 kmh 29.80 in1009.1 mb - 0.00 in0.0 mm 0.01 in0.3 mm
08:00 AM 54.4°F12.4°C 47.3°F8.5°C 77% 4.6 mph W7.4 kmh W 6.9 mph11.1 kmh 29.80 in1009.1 mb - 0.00 in0.0 mm 0.01 in0.3 mm
08:05 AM 54.6°F12.6°C 47.6°F8.7°C 77% 8.1 mph WSW13.0 kmh WSW 15.0 mph24.1 kmh 29.80 in1009.1 mb - 0.00 in0.0 mm 0.01 in0.3 mm
08:10 AM 55.0°F12.8°C 47.9°F8.8°C 77% 6.9 mph WSW11.1 kmh WSW 10.4 mph16.7 kmh 29.80 in1009.1 mb - 0.00 in0.0 mm 0.01 in0.3 mm
08:15 AM 55.1°F12.8°C 48.0°F8.9°C 77% 6.9 mph WSW11.1 kmh WSW 12.7 mph20.4 kmh 29.80 in1009.1 mb - 0.00 in0.0 mm 0.01 in0.3 mm
08:20 AM 55.1°F12.8°C 48.0°F8.9°C 77% 8.1 mph WSW13.0 kmh WSW 11.5 mph18.5 kmh 29.80 in1009.1 mb - 0.00 in0.0 mm 0.01 in0.3 mm
08:25 AM 55.1°F12.8°C 48.0°F8.9°C 77% 5.8 mph WSW9.3 kmh WSW 18.4 mph29.6 kmh 29.80 in1009.1 mb - 0.00 in0.0 mm 0.01 in0.3 mm
08:30 AM 55.0°F12.8°C 47.9°F8.8°C 77% 9.2 mph WSW14.8 kmh WSW 12.7 mph20.4 kmh 29.80 in1009.1 mb - 0.00 in0.0 mm 0.01 in0.3 mm
08:35 AM 55.0°F12.8°C 47.9°F8.8°C 77% 5.8 mph W9.3 kmh W 6.9 mph11.1 kmh 29.81 in1009.5 mb - 0.00 in0.0 mm 0.01 in0.3 mm
08:40 AM 55.1°F12.8°C 48.0°F8.9°C 77% 10.4 mph WSW16.7 kmh WSW 16.1 mph25.9 kmh 29.81 in1009.5 mb - 0.00 in0.0 mm 0.01 in0.3 mm
08:45 AM 55.1°F12.8°C 48.0°F8.9°C 77% 8.1 mph WSW13.0 kmh WSW 15.0 mph24.1 kmh 29.81 in1009.5 mb - 0.00 in0.0 mm 0.01 in0.3 mm
08:50 AM 55.3°F12.9°C 48.2°F9.0°C 77% 8.1 mph W13.0 kmh W 19.6 mph31.5 kmh 29.81 in1009.5 mb - 0.00 in0.0 mm 0.01 in0.3 mm
08:55 AM 55.5°F13.1°C 48.4°F9.1°C 77% 8.1 mph WSW13.0 kmh WSW 15.0 mph24.1 kmh 29.81 in1009.5 mb - 0.00 in0.0 mm 0.01 in0.3 mm
09:00 AM 55.6°F13.1°C 48.5°F9.2°C 77% 8.1 mph WSW13.0 kmh WSW 13.8 mph22.2 kmh 29.81 in1009.5 mb - 0.00 in0.0 mm 0.01 in0.3 mm
09:05 AM 55.8°F13.2°C 48.7°F9.3°C 77% 6.9 mph W11.1 kmh W 11.5 mph18.5 kmh 29.81 in1009.5 mb - 0.00 in0.0 mm 0.01 in0.3 mm
09:10 AM 55.8°F13.2°C 48.7°F9.3°C 77% 9.2 mph WSW14.8 kmh WSW 11.5 mph18.5 kmh 29.81 in1009.5 mb - 0.00 in0.0 mm 0.01 in0.3 mm
09:15 AM 56.1°F13.4°C 49.0°F9.4°C 77% 6.9 mph WSW11.1 kmh WSW 11.5 mph18.5 kmh 29.81 in1009.5 mb - 0.00 in0.0 mm 0.01 in0.3 mm
09:20 AM 56.1°F13.4°C 49.0°F9.4°C 77% 9.2 mph WSW14.8 kmh WSW 13.8 mph22.2 kmh 29.81 in1009.5 mb - 0.00 in0.0 mm 0.01 in0.3 mm
09:25 AM 56.4°F13.6°C 49.0°F9.4°C 76% 10.4 mph WSW16.7 kmh WSW 17.3 mph27.8 kmh 29.82 in1009.8 mb - 0.00 in0.0 mm 0.01 in0.3 mm
09:30 AM 57.0°F13.9°C 49.5°F9.7°C 76% 10.4 mph WSW16.7 kmh WSW 19.6 mph31.5 kmh 29.82 in1009.8 mb - 0.00 in0.0 mm 0.01 in0.3 mm
09:35 AM 57.4°F14.1°C 49.5°F9.7°C 75% 9.2 mph WSW14.8 kmh WSW 19.6 mph31.5 kmh 29.82 in1009.8 mb - 0.00 in0.0 mm 0.01 in0.3 mm
09:40 AM 57.6°F14.2°C 49.7°F9.8°C 75% 10.4 mph WSW16.7 kmh WSW 13.8 mph22.2 kmh 29.82 in1009.8 mb - 0.01 in0.3 mm 0.02 in0.5 mm
09:45 AM 57.6°F14.2°C 49.3°F9.6°C 74% 11.5 mph WSW18.5 kmh WSW 13.8 mph22.2 kmh 29.82 in1009.8 mb - 0.00 in0.0 mm 0.02 in0.5 mm
09:50 AM 57.4°F14.1°C 49.2°F9.6°C 74% 10.4 mph W16.7 kmh W 15.0 mph24.1 kmh 29.82 in1009.8 mb - 0.00 in0.0 mm 0.02 in0.5 mm
09:55 AM 57.1°F13.9°C 48.9°F9.4°C 74% 9.2 mph WSW14.8 kmh WSW 12.7 mph20.4 kmh 29.83 in1010.2 mb - 0.00 in0.0 mm 0.02 in0.5 mm
10:00 AM 57.4°F14.1°C 49.5°F9.7°C 75% 9.2 mph WSW14.8 kmh WSW 10.4 mph16.7 kmh 29.83 in1010.2 mb - 0.00 in0.0 mm 0.02 in0.5 mm
10:05 AM 57.4°F14.1°C 49.5°F9.7°C 75% 9.2 mph WSW14.8 kmh WSW 16.1 mph25.9 kmh 29.83 in1010.2 mb - 0.00 in0.0 mm 0.02 in0.5 mm
10:10 AM 57.7°F14.3°C 49.1°F9.5°C 73% 6.9 mph WSW11.1 kmh WSW 13.8 mph22.2 kmh 29.83 in1010.2 mb - 0.00 in0.0 mm 0.02 in0.5 mm
10:15 AM 57.9°F14.4°C 48.9°F9.4°C 72% 11.5 mph W18.5 kmh W 19.6 mph31.5 kmh 29.83 in1010.2 mb - 0.00 in0.0 mm 0.02 in0.5 mm
10:20 AM 57.7°F14.3°C 48.4°F9.1°C 71% 10.4 mph WSW16.7 kmh WSW 16.1 mph25.9 kmh 29.83 in1010.2 mb - 0.00 in0.0 mm 0.02 in0.5 mm
10:25 AM 57.4°F14.1°C 48.4°F9.1°C 72% 9.2 mph WSW14.8 kmh WSW 13.8 mph22.2 kmh 29.83 in1010.2 mb - 0.00 in0.0 mm 0.02 in0.5 mm
10:30 AM 57.3°F14.1°C 49.0°F9.4°C 74% 6.9 mph WSW11.1 kmh WSW 10.4 mph16.7 kmh 29.83 in1010.2 mb - 0.00 in0.0 mm 0.02 in0.5 mm
10:35 AM 57.9°F14.4°C 49.7°F9.8°C 74% 11.5 mph WSW18.5 kmh WSW 15.0 mph24.1 kmh 29.83 in1010.2 mb - 0.00 in0.0 mm 0.02 in0.5 mm
10:40 AM 57.7°F14.3°C 48.3°F9.1°C 71% 10.4 mph WSW16.7 kmh WSW 15.0 mph24.1 kmh 29.83 in1010.2 mb - 0.00 in0.0 mm 0.02 in0.5 mm
10:45 AM 57.3°F14.1°C 48.4°F9.1°C 72% 10.4 mph WSW16.7 kmh WSW 15.0 mph24.1 kmh 29.83 in1010.2 mb - 0.00 in0.0 mm 0.02 in0.5 mm
10:50 AM 57.6°F14.2°C 48.6°F9.2°C 72% 9.2 mph WSW14.8 kmh WSW 15.0 mph24.1 kmh 29.82 in1009.8 mb - 0.00 in0.0 mm 0.02 in0.5 mm
10:55 AM 58.2°F14.6°C 48.8°F9.3°C 71% 8.1 mph WSW13.0 kmh WSW 12.7 mph20.4 kmh 29.83 in1010.2 mb - 0.00 in0.0 mm 0.02 in0.5 mm
11:00 AM 58.7°F14.8°C 48.6°F9.2°C 69% 11.5 mph WSW18.5 kmh WSW 16.1 mph25.9 kmh 29.82 in1009.8 mb - 0.00 in0.0 mm 0.02 in0.5 mm
11:05 AM 59.3°F15.2°C 49.2°F9.6°C 69% 5.8 mph WSW9.3 kmh WSW 11.5 mph18.5 kmh 29.83 in1010.2 mb - 0.00 in0.0 mm 0.02 in0.5 mm
11:10 AM 59.3°F15.2°C 48.7°F9.3°C 68% 6.9 mph WSW11.1 kmh WSW 11.5 mph18.5 kmh 29.83 in1010.2 mb - 0.00 in0.0 mm 0.02 in0.5 mm
11:15 AM 58.9°F14.9°C 49.1°F9.5°C 70% 3.5 mph WSW5.6 kmh WSW 6.9 mph11.1 kmh 29.83 in1010.2 mb - 0.00 in0.0 mm 0.02 in0.5 mm
11:20 AM 58.6°F14.8°C 49.2°F9.6°C 71% 4.6 mph WSW7.4 kmh WSW 8.1 mph13.0 kmh 29.83 in1010.2 mb - 0.00 in0.0 mm 0.02 in0.5 mm
11:25 AM 58.2°F14.6°C 48.4°F9.1°C 70% 5.8 mph WSW9.3 kmh WSW 8.1 mph13.0 kmh 29.84 in1010.5 mb - 0.00 in0.0 mm 0.02 in0.5 mm
11:30 AM 57.7°F14.3°C 48.4°F9.1°C 71% 3.5 mph W5.6 kmh W 5.8 mph9.3 kmh 29.84 in1010.5 mb - 0.00 in0.0 mm 0.02 in0.5 mm
11:35 AM 57.6°F14.2°C 48.3°F9.1°C 71% 4.6 mph WSW7.4 kmh WSW 8.1 mph13.0 kmh 29.84 in1010.5 mb - 0.00 in0.0 mm 0.02 in0.5 mm
11:40 AM 57.5°F14.2°C 47.8°F8.8°C 70% 4.6 mph W7.4 kmh W 10.4 mph16.7 kmh 29.83 in1010.2 mb - 0.00 in0.0 mm 0.02 in0.5 mm
11:45 AM 57.6°F14.2°C 48.3°F9.1°C 71% 4.6 mph WSW7.4 kmh WSW 11.5 mph18.5 kmh 29.83 in1010.2 mb - 0.00 in0.0 mm 0.02 in0.5 mm
11:50 AM 57.6°F14.2°C 47.9°F8.8°C 70% 5.8 mph WSW9.3 kmh WSW 11.5 mph18.5 kmh 29.83 in1010.2 mb - 0.00 in0.0 mm 0.02 in0.5 mm
11:55 AM 57.9°F14.4°C 48.5°F9.2°C 71% 6.9 mph WSW11.1 kmh WSW 15.0 mph24.1 kmh 29.83 in1010.2 mb - 0.00 in0.0 mm 0.02 in0.5 mm
12:00 PM 58.5°F14.7°C 47.9°F8.8°C 68% 11.5 mph WSW18.5 kmh WSW 19.6 mph31.5 kmh 29.83 in1010.2 mb - 0.00 in0.0 mm 0.02 in0.5 mm
12:05 PM 58.8°F14.9°C 47.9°F8.8°C 67% 8.1 mph WSW13.0 kmh WSW 13.8 mph22.2 kmh 29.83 in1010.2 mb - 0.00 in0.0 mm 0.02 in0.5 mm
12:10 PM 58.7°F14.8°C 47.8°F8.8°C 67% 6.9 mph WSW11.1 kmh WSW 9.2 mph14.8 kmh 29.83 in1010.2 mb - 0.00 in0.0 mm 0.02 in0.5 mm
12:15 PM 59.2°F15.1°C 48.2°F9.0°C 67% 5.8 mph WSW9.3 kmh WSW 11.5 mph18.5 kmh 29.83 in1010.2 mb - 0.00 in0.0 mm 0.02 in0.5 mm
12:20 PM 59.6°F15.3°C 48.2°F9.0°C 66% 9.2 mph WSW14.8 kmh WSW 12.7 mph20.4 kmh 29.83 in1010.2 mb - 0.00 in0.0 mm 0.02 in0.5 mm
12:25 PM 59.4°F15.2°C 47.6°F8.7°C 65% 8.1 mph WSW13.0 kmh WSW 11.5 mph18.5 kmh 29.83 in1010.2 mb - 0.00 in0.0 mm 0.02 in0.5 mm
12:30 PM 59.1°F15.1°C 47.3°F8.5°C 65% 9.2 mph WSW14.8 kmh WSW 15.0 mph24.1 kmh 29.83 in1010.2 mb - 0.00 in0.0 mm 0.02 in0.5 mm
12:35 PM 58.6°F14.8°C 46.8°F8.2°C 65% 9.2 mph WSW14.8 kmh WSW 13.8 mph22.2 kmh 29.83 in1010.2 mb - 0.00 in0.0 mm 0.02 in0.5 mm
12:40 PM 58.1°F14.5°C 46.7°F8.2°C 66% 8.1 mph WSW13.0 kmh WSW 11.5 mph18.5 kmh 29.83 in1010.2 mb - 0.00 in0.0 mm 0.02 in0.5 mm
12:45 PM 57.7°F14.3°C 46.8°F8.2°C 67% 6.9 mph W11.1 kmh W 11.5 mph18.5 kmh 29.83 in1010.2 mb - 0.00 in0.0 mm 0.02 in0.5 mm
12:50 PM 57.3°F14.1°C 47.6°F8.7°C 70% 4.6 mph WSW7.4 kmh WSW 11.5 mph18.5 kmh 29.83 in1010.2 mb - 0.00 in0.0 mm 0.02 in0.5 mm
12:55 PM 56.5°F13.6°C 47.3°F8.5°C 71% 6.9 mph W11.1 kmh W 12.7 mph20.4 kmh 29.84 in1010.5 mb - 0.00 in0.0 mm 0.02 in0.5 mm
01:00 PM 55.9°F13.3°C 47.7°F8.7°C 74% 8.1 mph W13.0 kmh W 13.8 mph22.2 kmh 29.84 in1010.5 mb - 0.00 in0.0 mm 0.02 in0.5 mm
01:05 PM 55.2°F12.9°C 47.8°F8.8°C 76% 3.5 mph W5.6 kmh W 8.1 mph13.0 kmh 29.84 in1010.5 mb - 0.00 in0.0 mm 0.02 in0.5 mm
01:10 PM 54.7°F12.6°C 47.3°F8.5°C 76% 3.5 mph W5.6 kmh W 9.2 mph14.8 kmh 29.84 in1010.5 mb - 0.00 in0.0 mm 0.02 in0.5 mm
01:15 PM 54.4°F12.4°C 47.3°F8.5°C 77% 6.9 mph W11.1 kmh W 11.5 mph18.5 kmh 29.84 in1010.5 mb - 0.00 in0.0 mm 0.02 in0.5 mm
01:20 PM 54.1°F12.3°C 47.0°F8.3°C 77% 4.6 mph W7.4 kmh W 10.4 mph16.7 kmh 29.84 in1010.5 mb - 0.00 in0.0 mm 0.02 in0.5 mm
01:25 PM 53.8°F12.1°C 46.8°F8.2°C 77% 5.8 mph W9.3 kmh W 9.2 mph14.8 kmh 29.85 in1010.8 mb - 0.00 in0.0 mm 0.02 in0.5 mm
01:30 PM 53.6°F12.0°C 46.6°F8.1°C 77% 5.8 mph W9.3 kmh W 9.2 mph14.8 kmh 29.85 in1010.8 mb - 0.00 in0.0 mm 0.02 in0.5 mm
01:35 PM 53.4°F11.9°C 46.4°F8.0°C 77% 4.6 mph WNW7.4 kmh WNW 8.1 mph13.0 kmh 29.85 in1010.8 mb - 0.00 in0.0 mm 0.02 in0.5 mm
01:40 PM 53.3°F11.8°C 46.3°F7.9°C 77% 3.5 mph W5.6 kmh W 6.9 mph11.1 kmh 29.85 in1010.8 mb - 0.00 in0.0 mm 0.02 in0.5 mm
01:45 PM 53.2°F11.8°C 46.1°F7.8°C 77% 4.6 mph W7.4 kmh W 10.4 mph16.7 kmh 29.85 in1010.8 mb - 0.00 in0.0 mm 0.02 in0.5 mm
01:50 PM 53.1°F11.7°C 46.0°F7.8°C 77% 4.6 mph W7.4 kmh W 6.9 mph11.1 kmh 29.85 in1010.8 mb - 0.00 in0.0 mm 0.02 in0.5 mm
01:55 PM 53.0°F11.7°C 46.0°F7.8°C 77% 5.8 mph W9.3 kmh W 8.1 mph13.0 kmh 29.85 in1010.8 mb - 0.00 in0.0 mm 0.02 in0.5 mm
02:00 PM 52.9°F11.6°C 45.9°F7.7°C 77% 5.8 mph W9.3 kmh W 8.1 mph13.0 kmh 29.85 in1010.8 mb - 0.00 in0.0 mm 0.02 in0.5 mm
02:05 PM 53.0°F11.7°C 46.0°F7.8°C 77% 4.6 mph W7.4 kmh W 9.2 mph14.8 kmh 29.86 in1011.2 mb - 0.00 in0.0 mm 0.02 in0.5 mm
02:10 PM 53.0°F11.7°C 46.0°F7.8°C 77% 8.1 mph WNW13.0 kmh WNW 11.5 mph18.5 kmh 29.86 in1011.2 mb - 0.00 in0.0 mm 0.02 in0.5 mm
02:15 PM 52.7°F11.5°C 45.7°F7.6°C 77% 5.8 mph W9.3 kmh W 9.2 mph14.8 kmh 29.86 in1011.2 mb - 0.00 in0.0 mm 0.02 in0.5 mm
02:20 PM 52.5°F11.4°C 45.5°F7.5°C 77% 4.6 mph W7.4 kmh W 9.2 mph14.8 kmh 29.86 in1011.2 mb - 0.00 in0.0 mm 0.02 in0.5 mm
02:25 PM 52.4°F11.3°C 45.7°F7.6°C 78% 4.6 mph W7.4 kmh W 9.2 mph14.8 kmh 29.86 in1011.2 mb - 0.00 in0.0 mm 0.02 in0.5 mm
02:30 PM 52.5°F11.4°C 45.5°F7.5°C 77% 5.8 mph NW9.3 kmh NW 10.4 mph16.7 kmh 29.86 in1011.2 mb - 0.00 in0.0 mm 0.02 in0.5 mm
02:35 PM 52.6°F11.4°C 45.6°F7.6°C 77% 3.5 mph WNW5.6 kmh WNW 5.8 mph9.3 kmh 29.85 in1010.8 mb - 0.01 in0.3 mm 0.03 in0.8 mm
02:40 PM 52.7°F11.5°C 45.7°F7.6°C 77% 3.5 mph W5.6 kmh W 3.5 mph5.6 kmh 29.85 in1010.8 mb - 0.01 in0.3 mm 0.03 in0.8 mm
02:45 PM 52.6°F11.4°C 45.6°F7.6°C 77% 1.2 mph W1.9 kmh W 3.5 mph5.6 kmh 29.85 in1010.8 mb - 0.00 in0.0 mm 0.03 in0.8 mm
02:50 PM 52.7°F11.5°C 45.7°F7.6°C 77% 3.5 mph WSW5.6 kmh WSW 9.2 mph14.8 kmh 29.85 in1010.8 mb - 0.00 in0.0 mm 0.03 in0.8 mm
02:55 PM 52.8°F11.6°C 45.8°F7.7°C 77% 2.3 mph WSW3.7 kmh WSW 4.6 mph7.4 kmh 29.85 in1010.8 mb - 0.00 in0.0 mm 0.03 in0.8 mm
03:00 PM 53.2°F11.8°C 46.1°F7.8°C 77% 3.5 mph WSW5.6 kmh WSW 6.9 mph11.1 kmh 29.86 in1011.2 mb - 0.00 in0.0 mm 0.03 in0.8 mm
03:05 PM 53.3°F11.8°C 46.3°F7.9°C 77% 4.6 mph WSW7.4 kmh WSW 6.9 mph11.1 kmh 29.86 in1011.2 mb - 0.00 in0.0 mm 0.03 in0.8 mm
03:10 PM 53.4°F11.9°C 46.4°F8.0°C 77% 3.5 mph WSW5.6 kmh WSW 9.2 mph14.8 kmh 29.86 in1011.2 mb - 0.00 in0.0 mm 0.03 in0.8 mm
03:15 PM 53.3°F11.8°C 46.3°F7.9°C 77% 3.5 mph W5.6 kmh W 5.8 mph9.3 kmh 29.86 in1011.2 mb - 0.00 in0.0 mm 0.03 in0.8 mm
03:20 PM 53.3°F11.8°C 46.3°F7.9°C 77% 4.6 mph WSW7.4 kmh WSW 8.1 mph13.0 kmh 29.86 in1011.2 mb - 0.00 in0.0 mm 0.03 in0.8 mm
03:25 PM 53.1°F11.7°C 46.1°F7.8°C 77% 4.6 mph WSW7.4 kmh WSW 5.8 mph9.3 kmh 29.86 in1011.2 mb - 0.00 in0.0 mm 0.03 in0.8 mm
03:30 PM 52.8°F11.6°C 45.8°F7.7°C 77% 3.5 mph W5.6 kmh W 5.8 mph9.3 kmh 29.87 in1011.5 mb - 0.00 in0.0 mm 0.03 in0.8 mm
03:35 PM 52.7°F11.5°C 45.7°F7.6°C 77% 3.5 mph WSW5.6 kmh WSW 6.9 mph11.1 kmh 29.87 in1011.5 mb - 0.00 in0.0 mm 0.03 in0.8 mm
03:40 PM 52.6°F11.4°C 45.6°F7.6°C 77% 4.6 mph WSW7.4 kmh WSW 8.1 mph13.0 kmh 29.87 in1011.5 mb - 0.00 in0.0 mm 0.03 in0.8 mm
03:45 PM 52.6°F11.4°C 45.6°F7.6°C 77% 4.6 mph WSW7.4 kmh WSW 6.9 mph11.1 kmh 29.87 in1011.5 mb - 0.00 in0.0 mm 0.03 in0.8 mm
03:50 PM 52.7°F11.5°C 45.7°F7.6°C 77% 2.3 mph WSW3.7 kmh WSW 3.5 mph5.6 kmh 29.87 in1011.5 mb - 0.00 in0.0 mm 0.03 in0.8 mm
03:55 PM 52.7°F11.5°C 45.7°F7.6°C 77% 2.3 mph W3.7 kmh W 5.8 mph9.3 kmh 29.87 in1011.5 mb - 0.00 in0.0 mm 0.03 in0.8 mm
04:00 PM 52.7°F11.5°C 45.7°F7.6°C 77% 2.3 mph W3.7 kmh W 8.1 mph13.0 kmh 29.87 in1011.5 mb - 0.00 in0.0 mm 0.03 in0.8 mm
04:05 PM 52.6°F11.4°C 45.6°F7.6°C 77% 3.5 mph W5.6 kmh W 6.9 mph11.1 kmh 29.87 in1011.5 mb - 0.00 in0.0 mm 0.03 in0.8 mm
04:10 PM 52.5°F11.4°C 45.5°F7.5°C 77% 2.3 mph WNW3.7 kmh WNW 4.6 mph7.4 kmh 29.87 in1011.5 mb - 0.00 in0.0 mm 0.03 in0.8 mm
04:15 PM 52.4°F11.3°C 45.4°F7.4°C 77% 2.3 mph W3.7 kmh W 5.8 mph9.3 kmh 29.87 in1011.5 mb - 0.00 in0.0 mm 0.03 in0.8 mm
04:20 PM 52.3°F11.3°C 45.3°F7.4°C 77% 1.2 mph SW1.9 kmh SW 3.5 mph5.6 kmh 29.87 in1011.5 mb - 0.00 in0.0 mm 0.03 in0.8 mm
04:25 PM 52.5°F11.4°C 45.5°F7.5°C 77% 2.3 mph WSW3.7 kmh WSW 3.5 mph5.6 kmh 29.87 in1011.5 mb - 0.00 in0.0 mm 0.03 in0.8 mm
04:30 PM 52.8°F11.6°C 45.8°F7.7°C 77% 2.3 mph W3.7 kmh W 5.8 mph9.3 kmh 29.87 in1011.5 mb - 0.00 in0.0 mm 0.03 in0.8 mm
04:35 PM 53.2°F11.8°C 46.2°F7.9°C 77% 4.6 mph W7.4 kmh W 6.9 mph11.1 kmh 29.88 in1011.9 mb - 0.00 in0.0 mm 0.03 in0.8 mm
04:40 PM 53.3°F11.8°C 46.3°F7.9°C 77% 2.3 mph WSW3.7 kmh WSW 6.9 mph11.1 kmh 29.87 in1011.5 mb - 0.00 in0.0 mm 0.03 in0.8 mm
04:45 PM 53.3°F11.8°C 46.3°F7.9°C 77% 3.5 mph W5.6 kmh W 8.1 mph13.0 kmh 29.88 in1011.9 mb - 0.00 in0.0 mm 0.03 in0.8 mm
04:50 PM 53.3°F11.8°C 46.3°F7.9°C 77% 4.6 mph W7.4 kmh W 8.1 mph13.0 kmh 29.88 in1011.9 mb - 0.00 in0.0 mm 0.03 in0.8 mm
04:55 PM 53.3°F11.8°C 46.2°F7.9°C 77% 5.8 mph WSW9.3 kmh WSW 11.5 mph18.5 kmh 29.88 in1011.9 mb - 0.00 in0.0 mm 0.03 in0.8 mm
05:00 PM 53.1°F11.7°C 46.1°F7.8°C 77% 8.1 mph WSW13.0 kmh WSW 10.4 mph16.7 kmh 29.88 in1011.9 mb - 0.00 in0.0 mm 0.03 in0.8 mm
05:05 PM 53.0°F11.7°C 46.0°F7.8°C 77% 4.6 mph NW7.4 kmh NW 9.2 mph14.8 kmh 29.88 in1011.9 mb - 0.00 in0.0 mm 0.03 in0.8 mm
05:10 PM 53.0°F11.7°C 46.0°F7.8°C 77% 2.3 mph WNW3.7 kmh WNW 8.1 mph13.0 kmh 29.88 in1011.9 mb - 0.00 in0.0 mm 0.03 in0.8 mm
05:15 PM 53.0°F11.7°C 46.0°F7.8°C 77% 3.5 mph W5.6 kmh W 5.8 mph9.3 kmh 29.88 in1011.9 mb - 0.00 in0.0 mm 0.03 in0.8 mm
05:20 PM 53.0°F11.7°C 46.0°F7.8°C 77% 4.6 mph W7.4 kmh W 11.5 mph18.5 kmh 29.89 in1012.2 mb - 0.00 in0.0 mm 0.03 in0.8 mm
05:25 PM 52.8°F11.6°C 45.8°F7.7°C 77% 3.5 mph WSW5.6 kmh WSW 9.2 mph14.8 kmh 29.89 in1012.2 mb - 0.00 in0.0 mm 0.03 in0.8 mm
05:30 PM 52.6°F11.4°C 45.6°F7.6°C 77% 4.6 mph WSW7.4 kmh WSW 8.1 mph13.0 kmh 29.89 in1012.2 mb - 0.00 in0.0 mm 0.03 in0.8 mm
05:35 PM 52.5°F11.4°C 45.5°F7.5°C 77% 5.8 mph W9.3 kmh W 9.2 mph14.8 kmh 29.89 in1012.2 mb - 0.00 in0.0 mm 0.03 in0.8 mm
05:40 PM 52.4°F11.3°C 45.4°F7.4°C 77% 4.6 mph WSW7.4 kmh WSW 9.2 mph14.8 kmh 29.89 in1012.2 mb - 0.00 in0.0 mm 0.03 in0.8 mm
05:45 PM 52.3°F11.3°C 45.3°F7.4°C 77% 8.1 mph W13.0 kmh W 9.2 mph14.8 kmh 29.89 in1012.2 mb - 0.00 in0.0 mm 0.03 in0.8 mm
05:50 PM 52.3°F11.3°C 45.3°F7.4°C 77% 5.8 mph WSW9.3 kmh WSW 6.9 mph11.1 kmh 29.89 in1012.2 mb - 0.00 in0.0 mm 0.03 in0.8 mm
05:55 PM 52.1°F11.2°C 45.1°F7.3°C 77% 5.8 mph WSW9.3 kmh WSW 8.1 mph13.0 kmh 29.90 in1012.5 mb - 0.00 in0.0 mm 0.03 in0.8 mm
06:00 PM 52.0°F11.1°C 45.0°F7.2°C 77% 3.5 mph WSW5.6 kmh WSW 6.9 mph11.1 kmh 29.90 in1012.5 mb - 0.00 in0.0 mm 0.03 in0.8 mm
06:05 PM 51.8°F11.0°C 44.8°F7.1°C 77% 5.8 mph WSW9.3 kmh WSW 8.1 mph13.0 kmh 29.90 in1012.5 mb - 0.00 in0.0 mm 0.03 in0.8 mm
06:10 PM 51.5°F10.8°C 44.5°F6.9°C 77% 4.6 mph W7.4 kmh W 3.5 mph5.6 kmh 29.90 in1012.5 mb - 0.00 in0.0 mm 0.03 in0.8 mm
06:15 PM 51.2°F10.7°C 44.2°F6.8°C 77% 2.3 mph W3.7 kmh W 5.8 mph9.3 kmh 29.90 in1012.5 mb - 0.00 in0.0 mm 0.03 in0.8 mm
06:20 PM 50.8°F10.4°C 43.9°F6.6°C 77% 3.5 mph W5.6 kmh W 8.1 mph13.0 kmh 29.90 in1012.5 mb - 0.00 in0.0 mm 0.03 in0.8 mm
06:25 PM 50.5°F10.3°C 43.6°F6.4°C 77% 2.3 mph NW3.7 kmh NW 3.5 mph5.6 kmh 29.90 in1012.5 mb - 0.00 in0.0 mm 0.03 in0.8 mm
06:30 PM 50.2°F10.1°C 43.3°F6.3°C 77% 4.6 mph NW7.4 kmh NW 8.1 mph13.0 kmh 29.90 in1012.5 mb - 0.00 in0.0 mm 0.03 in0.8 mm
06:35 PM 49.9°F9.9°C 43.3°F6.3°C 78% 2.3 mph W3.7 kmh W 3.5 mph5.6 kmh 29.90 in1012.5 mb - 0.00 in0.0 mm 0.03 in0.8 mm
06:40 PM 49.6°F9.8°C 43.0°F6.1°C 78% 2.3 mph W3.7 kmh W 3.5 mph5.6 kmh 29.91 in1012.9 mb - 0.00 in0.0 mm 0.03 in0.8 mm
06:45 PM 49.3°F9.6°C 42.7°F5.9°C 78% 1.2 mph WNW1.9 kmh WNW 2.3 mph3.7 kmh 29.91 in1012.9 mb - 0.00 in0.0 mm 0.03 in0.8 mm
06:50 PM 49.1°F9.5°C 42.5°F5.8°C 78% 2.3 mph NW3.7 kmh NW 3.5 mph5.6 kmh 29.91 in1012.9 mb - 0.00 in0.0 mm 0.03 in0.8 mm
06:55 PM 48.8°F9.3°C 42.2°F5.7°C 78% 3.5 mph NW5.6 kmh NW 8.1 mph13.0 kmh 29.91 in1012.9 mb - 0.00 in0.0 mm 0.03 in0.8 mm
07:00 PM 48.5°F9.2°C 41.9°F5.5°C 78% 3.5 mph NW5.6 kmh NW 5.8 mph9.3 kmh 29.91 in1012.9 mb - 0.00 in0.0 mm 0.03 in0.8 mm
07:05 PM 48.3°F9.1°C 41.8°F5.4°C 78% 3.5 mph WNW5.6 kmh WNW 8.1 mph13.0 kmh 29.91 in1012.9 mb - 0.00 in0.0 mm 0.03 in0.8 mm
07:10 PM 48.3°F9.1°C 41.8°F5.4°C 78% 5.8 mph WNW9.3 kmh WNW 8.1 mph13.0 kmh 29.91 in1012.9 mb - 0.00 in0.0 mm 0.03 in0.8 mm
07:15 PM 48.3°F9.1°C 41.8°F5.4°C 78% 4.6 mph WNW7.4 kmh WNW 10.4 mph16.7 kmh 29.91 in1012.9 mb - 0.00 in0.0 mm 0.03 in0.8 mm
07:20 PM 48.5°F9.2°C 41.9°F5.5°C 78% 2.3 mph W3.7 kmh W 3.5 mph5.6 kmh 29.92 in1013.2 mb - 0.00 in0.0 mm 0.03 in0.8 mm
07:25 PM 48.6°F9.2°C 42.0°F5.6°C 78% 2.3 mph WSW3.7 kmh WSW 3.5 mph5.6 kmh 29.92 in1013.2 mb - 0.00 in0.0 mm 0.03 in0.8 mm
07:30 PM 48.6°F9.2°C 42.0°F5.6°C 78% 1.2 mph WSW1.9 kmh WSW 2.3 mph3.7 kmh 29.93 in1013.5 mb - 0.00 in0.0 mm 0.03 in0.8 mm
07:35 PM 48.4°F9.1°C 41.8°F5.4°C 78% 2.3 mph WNW3.7 kmh WNW 3.5 mph5.6 kmh 29.93 in1013.5 mb - 0.00 in0.0 mm 0.03 in0.8 mm
07:40 PM 48.1°F8.9°C 41.5°F5.3°C 78% 1.2 mph WNW1.9 kmh WNW 3.5 mph5.6 kmh 29.93 in1013.5 mb - 0.00 in0.0 mm 0.03 in0.8 mm
07:45 PM 47.7°F8.7°C 41.2°F5.1°C 78% 1.2 mph WNW1.9 kmh WNW 2.3 mph3.7 kmh 29.93 in1013.5 mb - 0.00 in0.0 mm 0.03 in0.8 mm
07:50 PM 47.3°F8.5°C 40.8°F4.9°C 78% 2.3 mph WNW3.7 kmh WNW 3.5 mph5.6 kmh 29.93 in1013.5 mb - 0.00 in0.0 mm 0.03 in0.8 mm
07:55 PM 47.2°F8.4°C 40.7°F4.8°C 78% 4.6 mph WNW7.4 kmh WNW 6.9 mph11.1 kmh 29.93 in1013.5 mb - 0.00 in0.0 mm 0.03 in0.8 mm
08:00 PM 47.2°F8.4°C 40.7°F4.8°C 78% 3.5 mph W5.6 kmh W 6.9 mph11.1 kmh 29.93 in1013.5 mb - 0.00 in0.0 mm 0.03 in0.8 mm
08:05 PM 47.3°F8.5°C 40.8°F4.9°C 78% 2.3 mph NW3.7 kmh NW 3.5 mph5.6 kmh 29.93 in1013.5 mb - 0.00 in0.0 mm 0.03 in0.8 mm
08:10 PM 47.3°F8.5°C 40.8°F4.9°C 78% 1.2 mph W1.9 kmh W 3.5 mph5.6 kmh 29.94 in1013.9 mb - 0.00 in0.0 mm 0.03 in0.8 mm
08:15 PM 47.3°F8.5°C 40.8°F4.9°C 78% Calm Calm 2.3 mph3.7 kmh 29.94 in1013.9 mb - 0.00 in0.0 mm 0.03 in0.8 mm
08:20 PM 47.2°F8.4°C 40.7°F4.8°C 78% 1.2 mph W1.9 kmh W 2.3 mph3.7 kmh 29.94 in1013.9 mb - 0.00 in0.0 mm 0.03 in0.8 mm
08:25 PM 46.8°F8.2°C 40.3°F4.6°C 78% 1.2 mph W1.9 kmh W 1.2 mph1.9 kmh 29.95 in1014.2 mb - 0.00 in0.0 mm 0.03 in0.8 mm
08:30 PM 46.4°F8.0°C 39.9°F4.4°C 78% Calm Calm -- 29.95 in1014.2 mb - 0.00 in0.0 mm 0.03 in0.8 mm
08:35 PM 46.0°F7.8°C 39.5°F4.2°C 78% 1.2 mph W1.9 kmh W 3.5 mph5.6 kmh 29.95 in1014.2 mb - 0.00 in0.0 mm 0.03 in0.8 mm
08:40 PM 45.6°F7.6°C 39.4°F4.1°C 79% 2.3 mph W3.7 kmh W 3.5 mph5.6 kmh 29.95 in1014.2 mb - 0.00 in0.0 mm 0.03 in0.8 mm
08:45 PM 45.3°F7.4°C 38.8°F3.8°C 78% 1.2 mph W1.9 kmh W 1.2 mph1.9 kmh 29.95 in1014.2 mb - 0.00 in0.0 mm 0.03 in0.8 mm
08:50 PM 45.1°F7.3°C 38.6°F3.7°C 78% 1.2 mph W1.9 kmh W 3.5 mph5.6 kmh 29.95 in1014.2 mb - 0.00 in0.0 mm 0.03 in0.8 mm
08:55 PM 44.7°F7.1°C 38.3°F3.5°C 78% 2.3 mph WSW3.7 kmh WSW 3.5 mph5.6 kmh 29.95 in1014.2 mb - 0.00 in0.0 mm 0.03 in0.8 mm
09:00 PM 44.6°F7.0°C 38.2°F3.4°C 78% 1.2 mph WSW1.9 kmh WSW 2.3 mph3.7 kmh 29.96 in1014.6 mb - 0.00 in0.0 mm 0.03 in0.8 mm
09:05 PM 44.6°F7.0°C 38.1°F3.4°C 78% Calm Calm 1.2 mph1.9 kmh 29.96 in1014.6 mb - 0.00 in0.0 mm 0.03 in0.8 mm
09:10 PM 44.3°F6.8°C 37.9°F3.3°C 78% Calm Calm -- 29.96 in1014.6 mb - 0.00 in0.0 mm 0.03 in0.8 mm
09:15 PM 44.1°F6.7°C 37.7°F3.2°C 78% 2.3 mph WSW3.7 kmh WSW 3.5 mph5.6 kmh 29.96 in1014.6 mb - 0.00 in0.0 mm 0.03 in0.8 mm
09:20 PM 44.0°F6.7°C 37.6°F3.1°C 78% 1.2 mph WSW1.9 kmh WSW 3.5 mph5.6 kmh 29.96 in1014.6 mb - 0.00 in0.0 mm 0.03 in0.8 mm
09:25 PM 44.2°F6.8°C 37.8°F3.2°C 78% 2.3 mph W3.7 kmh W 5.8 mph9.3 kmh 29.96 in1014.6 mb - 0.00 in0.0 mm 0.03 in0.8 mm
09:30 PM 44.7°F7.1°C 38.3°F3.5°C 78% 3.5 mph WSW5.6 kmh WSW 3.5 mph5.6 kmh 29.96 in1014.6 mb - 0.00 in0.0 mm 0.03 in0.8 mm
09:35 PM 45.2°F7.3°C 38.8°F3.8°C 78% 3.5 mph W5.6 kmh W 9.2 mph14.8 kmh 29.96 in1014.6 mb - 0.00 in0.0 mm 0.03 in0.8 mm
09:40 PM 45.9°F7.7°C 39.1°F3.9°C 77% 3.5 mph WNW5.6 kmh WNW 5.8 mph9.3 kmh 29.97 in1014.9 mb - 0.00 in0.0 mm 0.03 in0.8 mm
09:45 PM 46.4°F8.0°C 39.5°F4.2°C 77% 2.3 mph W3.7 kmh W 3.5 mph5.6 kmh 29.97 in1014.9 mb - 0.00 in0.0 mm 0.03 in0.8 mm
09:50 PM 46.5°F8.1°C 39.6°F4.2°C 77% 4.6 mph WNW7.4 kmh WNW 8.1 mph13.0 kmh 29.97 in1014.9 mb - 0.00 in0.0 mm 0.03 in0.8 mm
09:55 PM 46.5°F8.1°C 39.7°F4.3°C 77% 2.3 mph WNW3.7 kmh WNW 3.5 mph5.6 kmh 29.97 in1014.9 mb - 0.00 in0.0 mm 0.03 in0.8 mm
10:00 PM 46.7°F8.2°C 39.9°F4.4°C 77% 3.5 mph W5.6 kmh W 3.5 mph5.6 kmh 29.97 in1014.9 mb - 0.00 in0.0 mm 0.03 in0.8 mm
10:05 PM 46.7°F8.2°C 40.2°F4.6°C 78% 3.5 mph NW5.6 kmh NW 4.6 mph7.4 kmh 29.97 in1014.9 mb - 0.00 in0.0 mm 0.03 in0.8 mm
10:10 PM 46.7°F8.2°C 40.2°F4.6°C 78% 2.3 mph NW3.7 kmh NW 3.5 mph5.6 kmh 29.97 in1014.9 mb - 0.00 in0.0 mm 0.03 in0.8 mm
10:15 PM 46.6°F8.1°C 40.1°F4.5°C 78% 1.2 mph WSW1.9 kmh WSW 3.5 mph5.6 kmh 29.97 in1014.9 mb - 0.00 in0.0 mm 0.03 in0.8 mm
10:20 PM 46.5°F8.1°C 40.0°F4.4°C 78% 1.2 mph WSW1.9 kmh WSW 3.5 mph5.6 kmh 29.98 in1015.2 mb - 0.00 in0.0 mm 0.03 in0.8 mm
10:25 PM 46.4°F8.0°C 39.9°F4.4°C 78% Calm Calm 1.2 mph1.9 kmh 29.97 in1014.9 mb - 0.00 in0.0 mm 0.03 in0.8 mm
10:30 PM 46.3°F7.9°C 39.8°F4.3°C 78% Calm Calm -- 29.97 in1014.9 mb - 0.00 in0.0 mm 0.03 in0.8 mm
10:35 PM 46.1°F7.8°C 39.6°F4.2°C 78% Calm Calm 2.3 mph3.7 kmh 29.98 in1015.2 mb - 0.00 in0.0 mm 0.03 in0.8 mm
10:40 PM 45.9°F7.7°C 39.4°F4.1°C 78% 1.2 mph W1.9 kmh W 2.3 mph3.7 kmh 29.98 in1015.2 mb - 0.00 in0.0 mm 0.03 in0.8 mm
10:45 PM 45.7°F7.6°C 39.2°F4.0°C 78% 1.2 mph W1.9 kmh W 3.5 mph5.6 kmh 29.98 in1015.2 mb - 0.00 in0.0 mm 0.03 in0.8 mm
10:50 PM 45.6°F7.6°C 39.1°F3.9°C 78% Calm Calm -- 29.98 in1015.2 mb - 0.00 in0.0 mm 0.03 in0.8 mm
10:55 PM 45.4°F7.4°C 38.9°F3.8°C 78% Calm Calm -- 29.98 in1015.2 mb - 0.00 in0.0 mm 0.03 in0.8 mm
11:00 PM 45.2°F7.3°C 38.7°F3.7°C 78% Calm Calm -- 29.99 in1015.6 mb - 0.00 in0.0 mm 0.04 in1.0 mm
11:05 PM 45.0°F7.2°C 38.6°F3.7°C 78% Calm Calm -- 29.99 in1015.6 mb - 0.00 in0.0 mm 0.04 in1.0 mm
11:10 PM 44.7°F7.1°C 38.3°F3.5°C 78% Calm Calm -- 29.98 in1015.2 mb - 0.00 in0.0 mm 0.04 in1.0 mm
11:15 PM 44.6°F7.0°C 38.2°F3.4°C 78% Calm Calm -- 29.99 in1015.6 mb - 0.00 in0.0 mm 0.04 in1.0 mm
11:20 PM 44.5°F6.9°C 38.0°F3.3°C 78% Calm Calm -- 29.99 in1015.6 mb - 0.00 in0.0 mm 0.04 in1.0 mm
11:25 PM 44.4°F6.9°C 38.0°F3.3°C 78% Calm Calm -- 29.99 in1015.6 mb - 0.00 in0.0 mm 0.04 in1.0 mm
11:30 PM 44.3°F6.8°C 37.9°F3.3°C 78% Calm Calm -- 29.99 in1015.6 mb - 0.00 in0.0 mm 0.04 in1.0 mm
11:35 PM 44.4°F6.9°C 38.0°F3.3°C 78% 1.2 mph SW1.9 kmh SW 2.3 mph3.7 kmh 29.99 in1015.6 mb - 0.00 in0.0 mm 0.04 in1.0 mm
11:40 PM 44.4°F6.9°C 38.0°F3.3°C 78% 1.2 mph SW1.9 kmh SW 2.3 mph3.7 kmh 29.99 in1015.6 mb - 0.00 in0.0 mm 0.04 in1.0 mm
11:45 PM 44.5°F6.9°C 38.1°F3.4°C 78% Calm Calm -- 29.99 in1015.6 mb - 0.00 in0.0 mm 0.04 in1.0 mm
11:50 PM 44.5°F6.9°C 38.0°F3.3°C 78% Calm Calm -- 29.99 in1015.6 mb - 0.00 in0.0 mm 0.04 in1.0 mm
11:55 PM 44.5°F6.9°C 38.1°F3.4°C 78% Calm Calm -- 29.99 in1015.6 mb - 0.00 in0.0 mm 0.04 in1.0 mm